sensor_id;sensor_type;location;lat;lon;timestamp;P1;durP1;ratioP1;P2;durP2;ratioP2
19543;SDS011;9917;51.256;7.152;2023-02-25T00:00:06;13.17;;;2.73;;
19543;SDS011;9917;51.256;7.152;2023-02-25T00:02:33;20.73;;;3.60;;
19543;SDS011;9917;51.256;7.152;2023-02-25T00:05:00;7.83;;;3.23;;
19543;SDS011;9917;51.256;7.152;2023-02-25T00:07:26;11.27;;;2.73;;
19543;SDS011;9917;51.256;7.152;2023-02-25T00:09:51;8.97;;;3.00;;
19543;SDS011;9917;51.256;7.152;2023-02-25T00:12:18;11.07;;;3.20;;
19543;SDS011;9917;51.256;7.152;2023-02-25T00:14:44;13.63;;;3.27;;
19543;SDS011;9917;51.256;7.152;2023-02-25T00:17:10;18.53;;;3.40;;
19543;SDS011;9917;51.256;7.152;2023-02-25T00:19:35;13.33;;;3.50;;
19543;SDS011;9917;51.256;7.152;2023-02-25T00:22:01;17.73;;;3.20;;
19543;SDS011;9917;51.256;7.152;2023-02-25T00:24:27;11.50;;;3.17;;
19543;SDS011;9917;51.256;7.152;2023-02-25T00:26:52;14.30;;;3.20;;
19543;SDS011;9917;51.256;7.152;2023-02-25T00:29:19;17.20;;;3.47;;
19543;SDS011;9917;51.256;7.152;2023-02-25T00:31:45;14.73;;;3.50;;
19543;SDS011;9917;51.256;7.152;2023-02-25T00:34:11;17.17;;;3.60;;
19543;SDS011;9917;51.256;7.152;2023-02-25T00:36:37;19.13;;;3.13;;
19543;SDS011;9917;51.256;7.152;2023-02-25T00:39:03;17.90;;;3.17;;
19543;SDS011;9917;51.256;7.152;2023-02-25T00:41:29;13.87;;;3.10;;
19543;SDS011;9917;51.256;7.152;2023-02-25T00:43:55;18.47;;;3.57;;
19543;SDS011;9917;51.256;7.152;2023-02-25T00:46:24;13.87;;;3.70;;
19543;SDS011;9917;51.256;7.152;2023-02-25T00:48:50;15.50;;;3.83;;
19543;SDS011;9917;51.256;7.152;2023-02-25T00:51:17;17.13;;;4.20;;
19543;SDS011;9917;51.256;7.152;2023-02-25T00:53:44;15.37;;;3.47;;
19543;SDS011;9917;51.256;7.152;2023-02-25T00:56:11;19.13;;;3.60;;
19543;SDS011;9917;51.256;7.152;2023-02-25T00:58:38;10.43;;;3.00;;
19543;SDS011;9917;51.256;7.152;2023-02-25T01:01:04;17.67;;;3.33;;
19543;SDS011;9917;51.256;7.152;2023-02-25T01:03:40;18.53;;;3.97;;
19543;SDS011;9917;51.256;7.152;2023-02-25T01:06:06;14.07;;;3.30;;
19543;SDS011;9917;51.256;7.152;2023-02-25T01:08:32;18.57;;;3.57;;
19543;SDS011;9917;51.256;7.152;2023-02-25T01:10:58;15.67;;;2.93;;
19543;SDS011;9917;51.256;7.152;2023-02-25T01:13:23;15.50;;;3.37;;
19543;SDS011;9917;51.256;7.152;2023-02-25T01:15:49;14.67;;;3.73;;
19543;SDS011;9917;51.256;7.152;2023-02-25T01:18:15;16.73;;;3.63;;
19543;SDS011;9917;51.256;7.152;2023-02-25T01:20:42;18.63;;;3.50;;
19543;SDS011;9917;51.256;7.152;2023-02-25T01:23:08;11.07;;;3.60;;
19543;SDS011;9917;51.256;7.152;2023-02-25T01:25:33;14.23;;;3.63;;
19543;SDS011;9917;51.256;7.152;2023-02-25T01:28:04;15.10;;;3.83;;
19543;SDS011;9917;51.256;7.152;2023-02-25T01:30:29;16.37;;;3.30;;
19543;SDS011;9917;51.256;7.152;2023-02-25T01:32:55;17.43;;;3.80;;
19543;SDS011;9917;51.256;7.152;2023-02-25T01:35:21;12.47;;;3.87;;
19543;SDS011;9917;51.256;7.152;2023-02-25T01:37:48;14.80;;;3.43;;
19543;SDS011;9917;51.256;7.152;2023-02-25T01:40:14;14.53;;;3.47;;
19543;SDS011;9917;51.256;7.152;2023-02-25T01:42:41;15.63;;;3.13;;
19543;SDS011;9917;51.256;7.152;2023-02-25T01:48:02;18.90;;;4.10;;
19543;SDS011;9917;51.256;7.152;2023-02-25T01:50:34;12.67;;;3.60;;
19543;SDS011;9917;51.256;7.152;2023-02-25T01:53:06;10.93;;;3.43;;
19543;SDS011;9917;51.256;7.152;2023-02-25T01:55:32;13.73;;;3.60;;
19543;SDS011;9917;51.256;7.152;2023-02-25T01:57:58;12.23;;;3.93;;
19543;SDS011;9917;51.256;7.152;2023-02-25T02:00:25;10.37;;;3.97;;
19543;SDS011;9917;51.256;7.152;2023-02-25T02:02:51;17.83;;;4.40;;
19543;SDS011;9917;51.256;7.152;2023-02-25T02:05:17;15.50;;;4.67;;
19543;SDS011;9917;51.256;7.152;2023-02-25T02:07:43;15.43;;;4.70;;
19543;SDS011;9917;51.256;7.152;2023-02-25T02:10:12;15.47;;;4.40;;
19543;SDS011;9917;51.256;7.152;2023-02-25T02:12:38;17.53;;;5.03;;
19543;SDS011;9917;51.256;7.152;2023-02-25T02:15:08;15.73;;;4.83;;
19543;SDS011;9917;51.256;7.152;2023-02-25T02:17:37;12.43;;;4.50;;
19543;SDS011;9917;51.256;7.152;2023-02-25T02:20:08;11.93;;;4.20;;
19543;SDS011;9917;51.256;7.152;2023-02-25T02:22:39;14.40;;;3.83;;
19543;SDS011;9917;51.256;7.152;2023-02-25T02:31:25;12.87;;;3.53;;
19543;SDS011;9917;51.256;7.152;2023-02-25T02:34:05;16.00;;;4.83;;
19543;SDS011;9917;51.256;7.152;2023-02-25T02:36:48;9.90;;;3.83;;
19543;SDS011;9917;51.256;7.152;2023-02-25T02:39:24;9.93;;;4.60;;
19543;SDS011;9917;51.256;7.152;2023-02-25T02:41:57;17.13;;;4.83;;
19543;SDS011;9917;51.256;7.152;2023-02-25T02:44:30;18.37;;;5.17;;
19543;SDS011;9917;51.256;7.152;2023-02-25T02:47:03;18.60;;;4.93;;
19543;SDS011;9917;51.256;7.152;2023-02-25T02:49:34;20.03;;;4.83;;
19543;SDS011;9917;51.256;7.152;2023-02-25T02:52:05;16.60;;;5.17;;
19543;SDS011;9917;51.256;7.152;2023-02-25T02:54:34;16.93;;;4.23;;
19543;SDS011;9917;51.256;7.152;2023-02-25T02:57:02;15.23;;;4.70;;
19543;SDS011;9917;51.256;7.152;2023-02-25T02:59:32;16.17;;;4.03;;
19543;SDS011;9917;51.256;7.152;2023-02-25T03:02:00;11.40;;;3.80;;
19543;SDS011;9917;51.256;7.152;2023-02-25T03:04:32;12.73;;;3.83;;
19543;SDS011;9917;51.256;7.152;2023-02-25T03:07:02;15.83;;;3.80;;
19543;SDS011;9917;51.256;7.152;2023-02-25T03:09:31;13.50;;;3.97;;
19543;SDS011;9917;51.256;7.152;2023-02-25T03:12:02;18.70;;;3.83;;
19543;SDS011;9917;51.256;7.152;2023-02-25T03:14:28;21.40;;;3.67;;
19543;SDS011;9917;51.256;7.152;2023-02-25T03:16:55;10.37;;;3.60;;
19543;SDS011;9917;51.256;7.152;2023-02-25T03:19:27;15.03;;;3.70;;
19543;SDS011;9917;51.256;7.152;2023-02-25T03:22:00;11.80;;;3.50;;
19543;SDS011;9917;51.256;7.152;2023-02-25T03:24:31;9.97;;;3.90;;
19543;SDS011;9917;51.256;7.152;2023-02-25T03:27:14;13.37;;;5.13;;
19543;SDS011;9917;51.256;7.152;2023-02-25T03:29:47;12.13;;;4.00;;
19543;SDS011;9917;51.256;7.152;2023-02-25T03:32:13;12.87;;;4.43;;
19543;SDS011;9917;51.256;7.152;2023-02-25T03:34:42;19.53;;;5.07;;
19543;SDS011;9917;51.256;7.152;2023-02-25T03:37:10;14.67;;;4.20;;
19543;SDS011;9917;51.256;7.152;2023-02-25T03:39:40;20.63;;;4.93;;
19543;SDS011;9917;51.256;7.152;2023-02-25T03:42:09;15.73;;;4.83;;
19543;SDS011;9917;51.256;7.152;2023-02-25T03:44:38;21.13;;;5.13;;
19543;SDS011;9917;51.256;7.152;2023-02-25T03:47:09;15.90;;;5.30;;
19543;SDS011;9917;51.256;7.152;2023-02-25T03:49:39;12.97;;;4.67;;
19543;SDS011;9917;51.256;7.152;2023-02-25T03:52:13;20.27;;;6.13;;
19543;SDS011;9917;51.256;7.152;2023-02-25T03:54:47;15.60;;;5.47;;
19543;SDS011;9917;51.256;7.152;2023-02-25T03:57:14;15.23;;;4.97;;
19543;SDS011;9917;51.256;7.152;2023-02-25T03:59:39;14.70;;;5.00;;
19543;SDS011;9917;51.256;7.152;2023-02-25T04:02:05;20.20;;;5.27;;
19543;SDS011;9917;51.256;7.152;2023-02-25T04:04:31;18.83;;;5.40;;
19543;SDS011;9917;51.256;7.152;2023-02-25T04:06:59;14.23;;;5.10;;
19543;SDS011;9917;51.256;7.152;2023-02-25T04:09:24;20.03;;;5.07;;
19543;SDS011;9917;51.256;7.152;2023-02-25T04:11:50;12.87;;;4.90;;
19543;SDS011;9917;51.256;7.152;2023-02-25T04:14:16;18.50;;;6.17;;
19543;SDS011;9917;51.256;7.152;2023-02-25T04:16:41;21.73;;;6.60;;
19543;SDS011;9917;51.256;7.152;2023-02-25T04:19:07;18.27;;;5.77;;
19543;SDS011;9917;51.256;7.152;2023-02-25T04:21:34;15.27;;;6.10;;
19543;SDS011;9917;51.256;7.152;2023-02-25T04:24:02;22.70;;;6.03;;
19543;SDS011;9917;51.256;7.152;2023-02-25T04:26:29;17.07;;;5.40;;
19543;SDS011;9917;51.256;7.152;2023-02-25T04:28:55;21.00;;;5.87;;
19543;SDS011;9917;51.256;7.152;2023-02-25T04:31:21;18.40;;;5.80;;
19543;SDS011;9917;51.256;7.152;2023-02-25T04:33:47;19.00;;;5.97;;
19543;SDS011;9917;51.256;7.152;2023-02-25T04:36:26;14.57;;;4.53;;
19543;SDS011;9917;51.256;7.152;2023-02-25T04:38:53;19.47;;;5.73;;
19543;SDS011;9917;51.256;7.152;2023-02-25T04:41:21;13.43;;;4.53;;
19543;SDS011;9917;51.256;7.152;2023-02-25T04:43:47;19.80;;;5.20;;
19543;SDS011;9917;51.256;7.152;2023-02-25T04:46:12;18.63;;;5.30;;
19543;SDS011;9917;51.256;7.152;2023-02-25T04:48:38;16.47;;;4.47;;
19543;SDS011;9917;51.256;7.152;2023-02-25T04:51:04;14.87;;;4.00;;
19543;SDS011;9917;51.256;7.152;2023-02-25T04:53:30;18.47;;;3.63;;
19543;SDS011;9917;51.256;7.152;2023-02-25T04:55:56;16.83;;;3.87;;
19543;SDS011;9917;51.256;7.152;2023-02-25T04:58:23;11.00;;;3.10;;
19543;SDS011;9917;51.256;7.152;2023-02-25T05:00:49;17.17;;;3.70;;
19543;SDS011;9917;51.256;7.152;2023-02-25T05:03:15;14.33;;;3.67;;
19543;SDS011;9917;51.256;7.152;2023-02-25T05:05:41;12.97;;;3.00;;
19543;SDS011;9917;51.256;7.152;2023-02-25T05:08:06;13.43;;;2.73;;
19543;SDS011;9917;51.256;7.152;2023-02-25T05:10:33;16.50;;;3.20;;
19543;SDS011;9917;51.256;7.152;2023-02-25T05:12:59;14.23;;;2.83;;
19543;SDS011;9917;51.256;7.152;2023-02-25T05:15:26;13.77;;;2.97;;
19543;SDS011;9917;51.256;7.152;2023-02-25T05:17:52;9.50;;;2.53;;
19543;SDS011;9917;51.256;7.152;2023-02-25T05:20:18;16.10;;;3.37;;
19543;SDS011;9917;51.256;7.152;2023-02-25T05:22:44;12.20;;;3.33;;
19543;SDS011;9917;51.256;7.152;2023-02-25T05:25:10;11.97;;;2.83;;
19543;SDS011;9917;51.256;7.152;2023-02-25T05:27:36;13.83;;;2.87;;
19543;SDS011;9917;51.256;7.152;2023-02-25T05:30:02;19.00;;;3.40;;
19543;SDS011;9917;51.256;7.152;2023-02-25T05:32:29;21.47;;;3.20;;
19543;SDS011;9917;51.256;7.152;2023-02-25T05:34:55;8.93;;;2.90;;
19543;SDS011;9917;51.256;7.152;2023-02-25T05:37:21;12.17;;;3.30;;
19543;SDS011;9917;51.256;7.152;2023-02-25T05:39:47;9.50;;;2.80;;
19543;SDS011;9917;51.256;7.152;2023-02-25T05:42:13;16.33;;;2.83;;
19543;SDS011;9917;51.256;7.152;2023-02-25T05:44:38;13.33;;;2.87;;
19543;SDS011;9917;51.256;7.152;2023-02-25T05:47:04;11.93;;;2.87;;
19543;SDS011;9917;51.256;7.152;2023-02-25T05:49:31;16.30;;;3.00;;
19543;SDS011;9917;51.256;7.152;2023-02-25T05:51:57;11.63;;;2.80;;
19543;SDS011;9917;51.256;7.152;2023-02-25T05:54:23;16.50;;;2.80;;
19543;SDS011;9917;51.256;7.152;2023-02-25T05:56:49;11.40;;;2.57;;
19543;SDS011;9917;51.256;7.152;2023-02-25T05:59:16;11.90;;;2.73;;
19543;SDS011;9917;51.256;7.152;2023-02-25T06:01:41;13.10;;;2.83;;
19543;SDS011;9917;51.256;7.152;2023-02-25T06:04:07;15.60;;;3.27;;
19543;SDS011;9917;51.256;7.152;2023-02-25T06:06:34;13.87;;;3.43;;
19543;SDS011;9917;51.256;7.152;2023-02-25T06:09:01;13.27;;;2.87;;
19543;SDS011;9917;51.256;7.152;2023-02-25T06:11:28;12.97;;;3.53;;
19543;SDS011;9917;51.256;7.152;2023-02-25T06:13:54;15.70;;;3.80;;
19543;SDS011;9917;51.256;7.152;2023-02-25T06:16:21;12.03;;;3.67;;
19543;SDS011;9917;51.256;7.152;2023-02-25T06:18:47;10.80;;;4.10;;
19543;SDS011;9917;51.256;7.152;2023-02-25T06:21:13;15.70;;;3.13;;
19543;SDS011;9917;51.256;7.152;2023-02-25T06:23:42;18.20;;;3.97;;
19543;SDS011;9917;51.256;7.152;2023-02-25T06:26:09;13.27;;;3.30;;
19543;SDS011;9917;51.256;7.152;2023-02-25T06:28:36;16.83;;;4.50;;
19543;SDS011;9917;51.256;7.152;2023-02-25T06:31:05;12.33;;;3.27;;
19543;SDS011;9917;51.256;7.152;2023-02-25T06:33:31;7.73;;;2.60;;
19543;SDS011;9917;51.256;7.152;2023-02-25T06:35:57;16.57;;;3.17;;
19543;SDS011;9917;51.256;7.152;2023-02-25T06:38:23;17.90;;;3.80;;
19543;SDS011;9917;51.256;7.152;2023-02-25T06:40:50;15.93;;;3.37;;
19543;SDS011;9917;51.256;7.152;2023-02-25T06:43:16;17.17;;;3.30;;
19543;SDS011;9917;51.256;7.152;2023-02-25T06:45:42;20.63;;;3.50;;
19543;SDS011;9917;51.256;7.152;2023-02-25T06:48:08;19.73;;;2.83;;
19543;SDS011;9917;51.256;7.152;2023-02-25T06:50:34;17.53;;;3.50;;
19543;SDS011;9917;51.256;7.152;2023-02-25T06:53:03;19.93;;;3.17;;
19543;SDS011;9917;51.256;7.152;2023-02-25T06:55:28;12.70;;;2.97;;
19543;SDS011;9917;51.256;7.152;2023-02-25T06:57:56;12.47;;;2.80;;
19543;SDS011;9917;51.256;7.152;2023-02-25T07:00:21;15.73;;;2.70;;
19543;SDS011;9917;51.256;7.152;2023-02-25T07:02:47;20.43;;;3.33;;
19543;SDS011;9917;51.256;7.152;2023-02-25T07:05:13;12.80;;;4.07;;
19543;SDS011;9917;51.256;7.152;2023-02-25T07:07:39;15.23;;;3.40;;
19543;SDS011;9917;51.256;7.152;2023-02-25T07:10:05;16.33;;;3.20;;
19543;SDS011;9917;51.256;7.152;2023-02-25T07:12:32;28.30;;;3.83;;
19543;SDS011;9917;51.256;7.152;2023-02-25T07:14:59;15.23;;;3.37;;
19543;SDS011;9917;51.256;7.152;2023-02-25T07:17:24;22.27;;;3.63;;
19543;SDS011;9917;51.256;7.152;2023-02-25T07:19:50;16.40;;;3.13;;
19543;SDS011;9917;51.256;7.152;2023-02-25T07:22:17;15.87;;;3.23;;
19543;SDS011;9917;51.256;7.152;2023-02-25T07:24:43;10.03;;;2.83;;
19543;SDS011;9917;51.256;7.152;2023-02-25T07:27:09;20.20;;;3.40;;
19543;SDS011;9917;51.256;7.152;2023-02-25T07:29:36;20.63;;;3.50;;
19543;SDS011;9917;51.256;7.152;2023-02-25T07:32:04;14.67;;;2.97;;
19543;SDS011;9917;51.256;7.152;2023-02-25T07:34:30;16.60;;;2.73;;
19543;SDS011;9917;51.256;7.152;2023-02-25T07:37:01;13.77;;;2.83;;
19543;SDS011;9917;51.256;7.152;2023-02-25T07:39:37;12.13;;;3.23;;
19543;SDS011;9917;51.256;7.152;2023-02-25T07:42:03;14.43;;;2.97;;
19543;SDS011;9917;51.256;7.152;2023-02-25T07:44:28;14.67;;;2.37;;
19543;SDS011;9917;51.256;7.152;2023-02-25T07:46:54;12.37;;;2.77;;
19543;SDS011;9917;51.256;7.152;2023-02-25T07:49:21;17.63;;;2.73;;
19543;SDS011;9917;51.256;7.152;2023-02-25T07:51:47;14.13;;;2.60;;
19543;SDS011;9917;51.256;7.152;2023-02-25T07:54:12;14.23;;;3.63;;
19543;SDS011;9917;51.256;7.152;2023-02-25T07:56:38;13.07;;;3.27;;
19543;SDS011;9917;51.256;7.152;2023-02-25T07:59:04;20.03;;;3.27;;
19543;SDS011;9917;51.256;7.152;2023-02-25T08:01:30;16.20;;;3.53;;
19543;SDS011;9917;51.256;7.152;2023-02-25T08:03:58;15.80;;;3.30;;
19543;SDS011;9917;51.256;7.152;2023-02-25T08:06:26;13.03;;;3.40;;
19543;SDS011;9917;51.256;7.152;2023-02-25T08:08:52;19.23;;;3.47;;
19543;SDS011;9917;51.256;7.152;2023-02-25T08:11:18;16.10;;;3.30;;
19543;SDS011;9917;51.256;7.152;2023-02-25T08:13:45;9.83;;;2.60;;
19543;SDS011;9917;51.256;7.152;2023-02-25T08:16:12;11.23;;;3.03;;
19543;SDS011;9917;51.256;7.152;2023-02-25T08:18:38;18.30;;;3.17;;
19543;SDS011;9917;51.256;7.152;2023-02-25T08:21:04;12.77;;;3.20;;
19543;SDS011;9917;51.256;7.152;2023-02-25T08:23:32;11.87;;;3.33;;
19543;SDS011;9917;51.256;7.152;2023-02-25T08:25:58;12.17;;;3.50;;
19543;SDS011;9917;51.256;7.152;2023-02-25T08:28:25;9.33;;;3.93;;
19543;SDS011;9917;51.256;7.152;2023-02-25T08:30:52;10.57;;;4.00;;
19543;SDS011;9917;51.256;7.152;2023-02-25T08:33:18;12.40;;;3.93;;
19543;SDS011;9917;51.256;7.152;2023-02-25T08:35:45;18.00;;;4.40;;
19543;SDS011;9917;51.256;7.152;2023-02-25T08:38:11;15.73;;;5.97;;
19543;SDS011;9917;51.256;7.152;2023-02-25T08:40:38;19.17;;;6.10;;
19543;SDS011;9917;51.256;7.152;2023-02-25T08:43:05;14.93;;;5.90;;
19543;SDS011;9917;51.256;7.152;2023-02-25T08:45:31;26.13;;;6.30;;
19543;SDS011;9917;51.256;7.152;2023-02-25T08:47:57;20.20;;;5.87;;
19543;SDS011;9917;51.256;7.152;2023-02-25T08:50:23;21.20;;;6.20;;
19543;SDS011;9917;51.256;7.152;2023-02-25T08:52:49;17.83;;;5.83;;
19543;SDS011;9917;51.256;7.152;2023-02-25T08:55:14;13.67;;;5.10;;
19543;SDS011;9917;51.256;7.152;2023-02-25T08:57:42;12.53;;;4.53;;
19543;SDS011;9917;51.256;7.152;2023-02-25T09:00:09;11.53;;;4.40;;
19543;SDS011;9917;51.256;7.152;2023-02-25T09:02:37;12.57;;;3.90;;
19543;SDS011;9917;51.256;7.152;2023-02-25T09:05:03;18.67;;;3.80;;
19543;SDS011;9917;51.256;7.152;2023-02-25T09:07:29;11.07;;;3.30;;
19543;SDS011;9917;51.256;7.152;2023-02-25T09:09:57;11.73;;;3.67;;
19543;SDS011;9917;51.256;7.152;2023-02-25T09:12:23;10.80;;;3.40;;
19543;SDS011;9917;51.256;7.152;2023-02-25T09:14:50;12.67;;;3.87;;
19543;SDS011;9917;51.256;7.152;2023-02-25T09:17:16;6.97;;;3.67;;
19543;SDS011;9917;51.256;7.152;2023-02-25T09:19:42;9.07;;;3.37;;
19543;SDS011;9917;51.256;7.152;2023-02-25T09:22:09;10.03;;;2.97;;
19543;SDS011;9917;51.256;7.152;2023-02-25T09:24:35;12.40;;;3.33;;
19543;SDS011;9917;51.256;7.152;2023-02-25T09:27:01;11.90;;;3.70;;
19543;SDS011;9917;51.256;7.152;2023-02-25T09:29:27;8.87;;;2.67;;
19543;SDS011;9917;51.256;7.152;2023-02-25T09:31:54;8.00;;;2.97;;
19543;SDS011;9917;51.256;7.152;2023-02-25T09:34:20;8.30;;;2.73;;
19543;SDS011;9917;51.256;7.152;2023-02-25T09:36:46;9.90;;;2.73;;
19543;SDS011;9917;51.256;7.152;2023-02-25T09:39:12;14.43;;;2.47;;
19543;SDS011;9917;51.256;7.152;2023-02-25T09:41:45;13.10;;;2.67;;
19543;SDS011;9917;51.256;7.152;2023-02-25T09:44:17;9.40;;;2.60;;
19543;SDS011;9917;51.256;7.152;2023-02-25T09:46:46;10.30;;;3.13;;
19543;SDS011;9917;51.256;7.152;2023-02-25T09:49:19;10.00;;;2.47;;
19543;SDS011;9917;51.256;7.152;2023-02-25T09:51:51;11.77;;;2.97;;
19543;SDS011;9917;51.256;7.152;2023-02-25T09:54:24;9.33;;;3.53;;
19543;SDS011;9917;51.256;7.152;2023-02-25T09:56:56;10.77;;;2.80;;
19543;SDS011;9917;51.256;7.152;2023-02-25T09:59:25;9.10;;;3.07;;
19543;SDS011;9917;51.256;7.152;2023-02-25T10:01:58;10.50;;;3.20;;
19543;SDS011;9917;51.256;7.152;2023-02-25T10:04:32;9.73;;;2.90;;
19543;SDS011;9917;51.256;7.152;2023-02-25T10:07:06;8.93;;;3.70;;
19543;SDS011;9917;51.256;7.152;2023-02-25T10:09:42;14.90;;;3.40;;
19543;SDS011;9917;51.256;7.152;2023-02-25T10:12:19;11.23;;;3.10;;
19543;SDS011;9917;51.256;7.152;2023-02-25T10:15:03;15.47;;;3.10;;
19543;SDS011;9917;51.256;7.152;2023-02-25T10:18:08;9.27;;;3.20;;
19543;SDS011;9917;51.256;7.152;2023-02-25T10:20:56;9.33;;;2.87;;
19543;SDS011;9917;51.256;7.152;2023-02-25T10:23:32;12.40;;;3.10;;
19543;SDS011;9917;51.256;7.152;2023-02-25T10:26:10;17.50;;;2.83;;
19543;SDS011;9917;51.256;7.152;2023-02-25T10:28:40;12.93;;;2.53;;
19543;SDS011;9917;51.256;7.152;2023-02-25T10:31:09;10.47;;;2.60;;
19543;SDS011;9917;51.256;7.152;2023-02-25T10:33:39;7.17;;;1.63;;
19543;SDS011;9917;51.256;7.152;2023-02-25T10:36:08;4.67;;;1.80;;
19543;SDS011;9917;51.256;7.152;2023-02-25T10:38:41;8.73;;;2.30;;
19543;SDS011;9917;51.256;7.152;2023-02-25T10:41:10;6.03;;;2.13;;
19543;SDS011;9917;51.256;7.152;2023-02-25T10:43:36;7.13;;;1.87;;
19543;SDS011;9917;51.256;7.152;2023-02-25T10:46:06;5.47;;;1.90;;
19543;SDS011;9917;51.256;7.152;2023-02-25T10:48:38;5.07;;;1.70;;
19543;SDS011;9917;51.256;7.152;2023-02-25T10:51:08;5.83;;;2.37;;
19543;SDS011;9917;51.256;7.152;2023-02-25T10:53:36;4.63;;;1.70;;
19543;SDS011;9917;51.256;7.152;2023-02-25T10:56:03;3.70;;;1.70;;
19543;SDS011;9917;51.256;7.152;2023-02-25T10:58:31;5.03;;;1.80;;
19543;SDS011;9917;51.256;7.152;2023-02-25T11:01:03;4.67;;;1.77;;
19543;SDS011;9917;51.256;7.152;2023-02-25T11:03:35;2.67;;;1.43;;
19543;SDS011;9917;51.256;7.152;2023-02-25T11:06:11;3.90;;;1.73;;
19543;SDS011;9917;51.256;7.152;2023-02-25T11:08:41;4.27;;;2.13;;
19543;SDS011;9917;51.256;7.152;2023-02-25T11:11:14;4.70;;;2.43;;
19543;SDS011;9917;51.256;7.152;2023-02-25T11:13:41;5.10;;;1.30;;
19543;SDS011;9917;51.256;7.152;2023-02-25T11:16:08;3.67;;;1.37;;
19543;SDS011;9917;51.256;7.152;2023-02-25T11:18:40;2.40;;;1.23;;
19543;SDS011;9917;51.256;7.152;2023-02-25T11:21:06;3.23;;;1.10;;
19543;SDS011;9917;51.256;7.152;2023-02-25T11:23:37;4.40;;;1.20;;
19543;SDS011;9917;51.256;7.152;2023-02-25T11:26:12;3.63;;;1.33;;
19543;SDS011;9917;51.256;7.152;2023-02-25T11:28:42;4.17;;;1.30;;
19543;SDS011;9917;51.256;7.152;2023-02-25T11:31:14;2.43;;;1.20;;
19543;SDS011;9917;51.256;7.152;2023-02-25T11:33:42;2.30;;;1.03;;
19543;SDS011;9917;51.256;7.152;2023-02-25T11:36:19;4.17;;;1.10;;
19543;SDS011;9917;51.256;7.152;2023-02-25T11:38:49;2.43;;;0.93;;
19543;SDS011;9917;51.256;7.152;2023-02-25T11:41:29;3.40;;;1.27;;
19543;SDS011;9917;51.256;7.152;2023-02-25T11:43:56;3.57;;;1.20;;
19543;SDS011;9917;51.256;7.152;2023-02-25T11:46:22;2.90;;;1.07;;
19543;SDS011;9917;51.256;7.152;2023-02-25T11:48:50;6.33;;;1.20;;
19543;SDS011;9917;51.256;7.152;2023-02-25T11:51:24;2.07;;;1.20;;
19543;SDS011;9917;51.256;7.152;2023-02-25T11:54:02;6.13;;;1.17;;
19543;SDS011;9917;51.256;7.152;2023-02-25T11:56:37;2.03;;;1.00;;
19543;SDS011;9917;51.256;7.152;2023-02-25T12:02:11;3.00;;;1.20;;
19543;SDS011;9917;51.256;7.152;2023-02-25T12:05:01;3.13;;;0.97;;
19543;SDS011;9917;51.256;7.152;2023-02-25T12:07:51;3.47;;;1.20;;
19543;SDS011;9917;51.256;7.152;2023-02-25T12:13:40;4.82;;;1.13;;
19543;SDS011;9917;51.256;7.152;2023-02-25T12:25:59;6.57;;;0.80;;
19543;SDS011;9917;51.256;7.152;2023-02-25T12:28:44;4.22;;;0.82;;
19543;SDS011;9917;51.256;7.152;2023-02-25T12:34:23;3.97;;;0.77;;
19543;SDS011;9917;51.256;7.152;2023-02-25T12:37:24;3.30;;;0.60;;
19543;SDS011;9917;51.256;7.152;2023-02-25T12:43:09;3.88;;;1.25;;
19543;SDS011;9917;51.256;7.152;2023-02-25T12:49:00;7.97;;;1.60;;
19543;SDS011;9917;51.256;7.152;2023-02-25T12:51:46;6.20;;;1.30;;
19543;SDS011;9917;51.256;7.152;2023-02-25T12:54:30;4.07;;;1.30;;
19543;SDS011;9917;51.256;7.152;2023-02-25T12:57:18;5.72;;;0.77;;
19543;SDS011;9917;51.256;7.152;2023-02-25T13:00:02;2.13;;;0.77;;
19543;SDS011;9917;51.256;7.152;2023-02-25T13:02:52;5.47;;;1.00;;
19543;SDS011;9917;51.256;7.152;2023-02-25T13:05:39;2.55;;;0.65;;
19543;SDS011;9917;51.256;7.152;2023-02-25T13:08:34;6.70;;;0.85;;
19543;SDS011;9917;51.256;7.152;2023-02-25T13:11:15;5.68;;;1.00;;
19543;SDS011;9917;51.256;7.152;2023-02-25T13:13:59;5.47;;;1.10;;
19543;SDS011;9917;51.256;7.152;2023-02-25T13:16:41;4.28;;;0.95;;
19543;SDS011;9917;51.256;7.152;2023-02-25T13:19:21;4.15;;;0.77;;
19543;SDS011;9917;51.256;7.152;2023-02-25T13:22:03;4.00;;;0.70;;
19543;SDS011;9917;51.256;7.152;2023-02-25T13:24:47;6.65;;;1.38;;
19543;SDS011;9917;51.256;7.152;2023-02-25T13:30:23;5.75;;;1.10;;
19543;SDS011;9917;51.256;7.152;2023-02-25T13:33:11;5.05;;;0.50;;
19543;SDS011;9917;51.256;7.152;2023-02-25T13:35:52;6.80;;;1.02;;
19543;SDS011;9917;51.256;7.152;2023-02-25T13:41:29;3.08;;;0.68;;
19543;SDS011;9917;51.256;7.152;2023-02-25T13:44:17;5.15;;;0.98;;
19543;SDS011;9917;51.256;7.152;2023-02-25T13:50:23;6.57;;;1.02;;
19543;SDS011;9917;51.256;7.152;2023-02-25T14:04:51;5.18;;;1.58;;
19543;SDS011;9917;51.256;7.152;2023-02-25T14:07:43;4.38;;;1.42;;
19543;SDS011;9917;51.256;7.152;2023-02-25T14:10:39;7.00;;;1.10;;
19543;SDS011;9917;51.256;7.152;2023-02-25T14:13:19;3.63;;;0.80;;
19543;SDS011;9917;51.256;7.152;2023-02-25T14:16:04;3.60;;;1.15;;
19543;SDS011;9917;51.256;7.152;2023-02-25T14:21:47;6.78;;;0.98;;
19543;SDS011;9917;51.256;7.152;2023-02-25T14:24:30;3.15;;;0.60;;
19543;SDS011;9917;51.256;7.152;2023-02-25T14:27:07;3.30;;;0.70;;
19543;SDS011;9917;51.256;7.152;2023-02-25T14:29:46;2.60;;;0.60;;
19543;SDS011;9917;51.256;7.152;2023-02-25T14:32:33;2.78;;;0.98;;
19543;SDS011;9917;51.256;7.152;2023-02-25T14:35:22;4.85;;;0.77;;
19543;SDS011;9917;51.256;7.152;2023-02-25T14:38:02;4.70;;;0.77;;
19543;SDS011;9917;51.256;7.152;2023-02-25T14:40:36;5.13;;;0.95;;
19543;SDS011;9917;51.256;7.152;2023-02-25T14:45:54;3.50;;;0.73;;
19543;SDS011;9917;51.256;7.152;2023-02-25T14:48:24;2.83;;;0.50;;
19543;SDS011;9917;51.256;7.152;2023-02-25T14:50:58;2.03;;;0.63;;
19543;SDS011;9917;51.256;7.152;2023-02-25T14:53:48;3.60;;;0.70;;
19543;SDS011;9917;51.256;7.152;2023-02-25T14:56:45;5.63;;;1.10;;
19543;SDS011;9917;51.256;7.152;2023-02-25T14:59:19;3.08;;;0.90;;
19543;SDS011;9917;51.256;7.152;2023-02-25T15:05:15;3.83;;;1.65;;
19543;SDS011;9917;51.256;7.152;2023-02-25T15:08:05;6.05;;;1.55;;
19543;SDS011;9917;51.256;7.152;2023-02-25T15:10:54;6.53;;;1.70;;
19543;SDS011;9917;51.256;7.152;2023-02-25T15:13:37;3.45;;;1.23;;
19543;SDS011;9917;51.256;7.152;2023-02-25T15:16:34;2.47;;;0.70;;
19543;SDS011;9917;51.256;7.152;2023-02-25T15:22:15;2.30;;;0.70;;
19543;SDS011;9917;51.256;7.152;2023-02-25T15:24:44;3.87;;;0.90;;
19543;SDS011;9917;51.256;7.152;2023-02-25T15:30:18;3.23;;;0.90;;
19543;SDS011;9917;51.256;7.152;2023-02-25T15:33:04;5.17;;;0.87;;
19543;SDS011;9917;51.256;7.152;2023-02-25T15:35:52;7.30;;;1.97;;
19543;SDS011;9917;51.256;7.152;2023-02-25T15:38:37;5.83;;;1.47;;
19543;SDS011;9917;51.256;7.152;2023-02-25T15:49:54;3.97;;;1.20;;
19543;SDS011;9917;51.256;7.152;2023-02-25T15:58:09;6.80;;;1.00;;
19543;SDS011;9917;51.256;7.152;2023-02-25T16:04:05;2.67;;;0.90;;
19543;SDS011;9917;51.256;7.152;2023-02-25T16:06:52;2.67;;;1.10;;
19543;SDS011;9917;51.256;7.152;2023-02-25T16:09:18;5.47;;;1.03;;
19543;SDS011;9917;51.256;7.152;2023-02-25T16:11:48;6.23;;;1.17;;
19543;SDS011;9917;51.256;7.152;2023-02-25T16:14:21;3.77;;;0.90;;
19543;SDS011;9917;51.256;7.152;2023-02-25T16:16:50;2.60;;;1.00;;
19543;SDS011;9917;51.256;7.152;2023-02-25T16:19:19;3.43;;;0.97;;
19543;SDS011;9917;51.256;7.152;2023-02-25T16:21:50;3.03;;;1.03;;
19543;SDS011;9917;51.256;7.152;2023-02-25T16:24:20;2.37;;;0.93;;
19543;SDS011;9917;51.256;7.152;2023-02-25T16:26:49;2.70;;;0.93;;
19543;SDS011;9917;51.256;7.152;2023-02-25T16:32:21;3.23;;;0.93;;
19543;SDS011;9917;51.256;7.152;2023-02-25T16:34:56;3.97;;;1.30;;
19543;SDS011;9917;51.256;7.152;2023-02-25T16:37:36;4.20;;;1.20;;
19543;SDS011;9917;51.256;7.152;2023-02-25T16:40:11;3.77;;;0.80;;
19543;SDS011;9917;51.256;7.152;2023-02-25T16:42:41;4.97;;;1.30;;
19543;SDS011;9917;51.256;7.152;2023-02-25T16:45:23;2.80;;;1.03;;